Airfield :
LOGIN :

Register | Disclaimer

   EN    FR    IT 

 










Legend :    VFR   Marginal VFR   IFR   Intensive IFR   Very Intensive IFR
Visi :
Ceiling :
>= 8 km
>= 3000ft
5 to 8 km
1000 to 3000 ft
1500m to 5 km
500 to 1000 ft
800 to 1500m
200 to 500 ft
< 800m
< 200 ft
Symbols :   Thunderstorms  Fog  Heavy snow  Heavy precipitations  Wind > 20 kt
SIGMETs :     Misc.  Thunderstorms  Icing  Turbulence  Mountain Waves  Volcanic Ashes






- Airport Elevation : 13 ft
- IATA code : CEQ


LFMD - Cannes Mandelieu

CURRENT METAR :
  • 050730Z AUTO 25002KT CAVOK 21/15 Q1008 TEMPO 26015G30KT

EXPIRED METARs :
  • 050700Z AUTO 00000KT CAVOK 21/15 Q1008 NOSIG
  • 050630Z AUTO VRB02KT CAVOK 22/15 Q1008 NOSIG
  • 050600Z AUTO 06004KT 360V160 CAVOK 21/15 Q1008 NOSIG
  • 050530Z AUTO 00000KT CAVOK 20/15 Q1008 NOSIG
  • 050500Z AUTO 25003KT 190V330 CAVOK 20/15 Q1008 NOSIG

TAF TAF LFMD
Valid from the 05 at 03:00 until the 06 at 03:00 UTC


050200Z 0503/0603 26010KT CAVOK
TEMPO 0503/0509 36005KT
TEMPO 0509/0523 26015G30KT
ATIS : +33 4 92 19 94 92



MET'MAP, your aeronautical weather chart ! - Copyright ORBIFLY December 2007 - Disclaimer

ORBIFLY MET'MAP TEAM :

Programming & Development : Alexandra Zaïnal
Concept & original design : Baudouin d'Aumeries
Assistance for programming : Marc-Olivier Méhu
Technical & hardware support : Manuel Goepfert

Contact : metmap@orbifly.com




SOURCES & CREDITS :

   NOAA